Bodajbo, Russia
Current Conditions -  °F | °C
As of 11:00 AM on Sunday 26 Oct 2014 (Local Time) from UIAA Reporting Station
Scattered Clouds Scattered Clouds  
Wind Chill: 19°   Ceiling: Unl
Heat Index: 19°   Visibility: 6mi
Dew Point:   Wind: 2mph
Humidity: 42%   Direction: NA
Pressure: 30.53"   Gusts: NA
Location:  57.85°N, 114.19°E
Report Text: UIAA 260300Z VRB01MPS 9999 SCT200 M07/M18 Q1034 NOSIG RMKQFE716 29CLRD70
Loading
Personal Weather Stations






























Interactive Weather Map
Tropical Storm Tracking
New forecast layout! Learn more

10-Day Weather Forecast

Advertisements
Track Severe Weather on mobile